Time;durP1;ratioP1;P1;durP2;ratioP2;P2;SDS_P1;SDS_P2;PMS_P1;PMS_P2;Temp;Humidity;BMP_temperature;BMP_pressure;BME280_temperature;BME280_humidity;BME280_pressure;Samples;Min_cycle;Max_cycle;Signal;HPM_P1;HPM_P2
2021/06/02 00:01:55;;;;;;;0.55;0.50;;;16.00;90.90;;;;;;5017853;28;20112;-88
2021/06/02 00:04:23;;;;;;;3.00;0.52;;;16.10;90.70;;;;;;5018004;28;20040;-89
2021/06/02 00:06:49;;;;;;;0.85;0.40;;;16.10;90.60;;;;;;5018485;28;20034;-89
2021/06/02 00:09:16;;;;;;;2.60;0.50;;;16.20;90.60;;;;;;5017930;28;20033;-89
2021/06/02 00:12:14;;;;;;;5.00;1.30;;;16.80;90.90;;;;;;5021196;28;20037;-88
2021/06/02 00:14:42;;;;;;;2.03;0.65;;;16.20;91.20;;;;;;5017940;28;20033;-88
2021/06/02 00:17:08;;;;;;;1.00;0.50;;;18.10;92.20;;;;;;5018085;28;20056;-89
2021/06/02 00:19:34;;;;;;;2.80;1.00;;;16.50;91.70;;;;;;5035558;28;20081;-88
2021/06/02 00:22:02;;;;;;;0.90;0.57;;;18.40;92.30;;;;;;5017528;28;20057;-88
2021/06/02 00:24:28;;;;;;;1.65;0.75;;;16.10;92.00;;;;;;5017969;28;20032;-89
2021/06/02 00:26:59;;;;;;;2.53;0.43;;;16.10;92.40;;;;;;5017578;28;20025;-88
2021/06/02 00:29:28;;;;;;;3.83;0.60;;;16.10;92.50;;;;;;5017213;28;20032;-88
2021/06/02 00:31:55;;;;;;;6.95;1.00;;;16.20;92.80;;;;;;5017282;28;20021;-88
2021/06/02 00:34:21;;;;;;;2.90;1.02;;;15.90;93.00;;;;;;5017483;28;20402;-88
2021/06/02 00:36:47;;;;;;;7.35;0.98;;;16.10;93.30;;;;;;5017417;28;20394;-89
2021/06/02 00:39:17;;;;;;;1.45;0.80;;;16.10;93.20;;;;;;5017005;28;20025;-88
2021/06/02 00:41:44;;;;;;;1.45;0.65;;;16.10;93.70;;;;;;5017303;28;20037;-89
2021/06/02 00:44:15;;;;;;;6.25;0.98;;;16.10;93.90;;;;;;5017227;28;20018;-89
2021/06/02 00:46:42;;;;;;;2.17;0.95;;;16.10;94.10;;;;;;5017345;28;20080;-88
2021/06/02 00:49:10;;;;;;;1.15;0.63;;;16.10;94.90;;;;;;5017026;28;20068;-90
2021/06/02 00:51:36;;;;;;;2.55;1.13;;;16.00;95.10;;;;;;5016811;28;20035;-89
2021/06/02 00:54:03;;;;;;;1.55;0.95;;;16.00;95.70;;;;;;5017013;28;20025;-89
2021/06/02 00:56:36;;;;;;;3.60;1.45;;;16.00;95.80;;;;;;5017098;28;20045;-89
2021/06/02 00:59:02;;;;;;;4.03;1.23;;;15.90;96.60;;;;;;5034757;28;20022;-88
2021/06/02 01:01:33;;;;;;;1.20;0.63;;;15.90;98.20;;;;;;5017592;28;20403;-90
2021/06/02 01:04:01;;;;;;;4.35;1.38;;;15.90;98.60;;;;;;5017119;28;20025;-89
2021/06/02 01:06:28;;;;;;;3.80;1.77;;;15.70;98.80;;;;;;5017315;28;20136;-89
2021/06/02 01:08:58;;;;;;;4.97;0.95;;;15.90;99.50;;;;;;5033563;28;20026;-88
2021/06/02 01:11:26;;;;;;;2.45;1.23;;;15.80;99.60;;;;;;5034274;28;20045;-87
2021/06/02 01:13:54;;;;;;;4.57;1.45;;;15.70;99.90;;;;;;5034505;28;20028;-89
2021/06/02 01:16:21;;;;;;;3.97;1.58;;;15.70;99.90;;;;;;5016793;28;20033;-89
2021/06/02 01:18:47;;;;;;;6.57;1.45;;;17.90;99.90;;;;;;5034232;28;20058;-89
2021/06/02 01:21:21;;;;;;;2.78;1.38;;;19.10;99.90;;;;;;5016679;28;20375;-90
2021/06/02 01:23:49;;;;;;;4.93;1.75;;;15.60;99.90;;;;;;5017688;28;20021;-89
2021/06/02 01:26:14;;;;;;;4.65;2.00;;;15.40;99.90;;;;;;5016834;28;20112;-88
2021/06/02 01:28:40;;;;;;;5.15;2.20;;;15.40;99.90;;;;;;5016578;28;20045;-89
2021/06/02 01:31:07;;;;;;;5.47;2.03;;;15.50;99.90;;;;;;5016541;28;20455;-89
2021/06/02 01:34:11;;;;;;;6.47;2.00;;;15.50;99.90;;;;;;5016472;28;20036;-88
2021/06/02 01:37:04;;;;;;;5.22;2.17;;;15.50;99.90;;;;;;5032952;28;20125;-89
2021/06/02 01:39:53;;;;;;;8.10;3.10;;;15.50;99.90;;;;;;5016339;28;20109;-89
2021/06/02 01:42:58;;;;;;;5.60;3.05;;;15.50;99.90;;;;;;5016149;28;20124;-89
2021/06/02 01:45:45;;;;;;;5.03;2.40;;;15.40;99.90;;;;;;5016704;28;20432;-90
2021/06/02 01:48:31;;;;;;;6.50;2.92;;;15.40;99.90;;;;;;5034157;28;20034;-89
2021/06/02 01:51:43;;;;;;;7.03;3.15;;;16.20;99.90;;;;;;5015583;28;20022;-89
2021/06/02 01:54:25;;;;;;;8.90;2.95;;;15.40;99.90;;;;;;5034020;28;20114;-90
2021/06/02 01:57:16;;;;;;;5.53;2.70;;;15.40;99.90;;;;;;5031741;28;20052;-90
2021/06/02 02:00:20;;;;;;;5.72;2.70;;;15.40;99.90;;;;;;5015627;28;20041;-88
2021/06/02 02:03:30;;;;;;;7.53;3.35;;;15.40;99.90;;;;;;5013167;28;20041;-88
2021/06/02 02:06:26;;;;;;;9.80;3.00;;;15.30;99.90;;;;;;5014529;28;20033;-89
2021/06/02 02:09:02;;;;;;;5.80;2.80;;;15.30;99.90;;;;;;5016745;28;20109;-89
2021/06/02 02:11:35;;;;;;;7.65;2.97;;;15.30;99.90;;;;;;5015950;28;20056;-89
2021/06/02 02:14:21;;;;;;;8.60;3.47;;;15.30;99.90;;;;;;5016325;28;20029;-89
2021/06/02 02:17:17;;;;;;;9.15;3.55;;;15.20;99.90;;;;;;5016050;28;20471;-89
2021/06/02 02:20:19;;;;;;;4.78;2.47;;;15.20;99.90;;;;;;5034091;28;20041;-90
2021/06/02 02:23:14;;;;;;;6.63;2.90;;;15.20;99.90;;;;;;5038014;28;20376;-90
2021/06/02 02:25:48;;;;;;;7.35;3.22;;;15.20;99.90;;;;;;5038028;28;20029;-89
2021/06/02 02:28:50;;;;;;;8.23;3.40;;;15.20;99.90;;;;;;5020129;28;20029;-89
2021/06/02 02:31:25;;;;;;;6.93;3.22;;;15.10;99.90;;;;;;5022574;28;20060;-88
2021/06/02 02:34:05;;;;;;;5.78;3.03;;;15.10;99.90;;;;;;5019851;28;20032;-89
2021/06/02 02:36:39;;;;;;;9.73;3.42;;;15.00;99.90;;;;;;5019975;28;20025;-89
2021/06/02 02:39:07;;;;;;;4.78;3.13;;;14.90;99.90;;;;;;5037543;28;20030;-89
2021/06/02 02:44:34;;;;;;;11.57;3.45;;;14.90;99.90;;;;;;5058404;28;20049;-89
2021/06/02 02:47:23;;;;;;;5.45;2.88;;;14.80;99.90;;;;;;5044493;28;20155;-89
2021/06/02 02:50:00;;;;;;;7.75;3.40;;;14.80;99.90;;;;;;5044210;28;20033;-88
2021/06/02 02:52:41;;;;;;;5.82;3.20;;;14.70;99.90;;;;;;5042878;28;20021;-88
2021/06/02 02:55:26;;;;;;;7.47;3.50;;;15.30;99.90;;;;;;5057376;28;20436;-89
2021/06/02 02:58:16;;;;;;;11.10;4.53;;;14.70;99.90;;;;;;5057032;28;20030;-88
2021/06/02 03:00:44;;;;;;;6.00;3.45;;;14.60;99.90;;;;;;5056986;28;20036;-88
2021/06/02 03:03:12;;;;;;;7.10;3.78;;;14.50;99.90;;;;;;5038932;28;20052;-88
2021/06/02 03:05:46;;;;;;;5.95;3.60;;;14.50;99.90;;;;;;5039185;28;20027;-88
2021/06/02 03:08:37;;;;;;;6.43;3.35;;;14.50;99.90;;;;;;5038978;28;20063;-88
2021/06/02 03:11:17;;;;;;;10.65;3.72;;;14.50;99.90;;;;;;5002221;28;20559;-88
2021/06/02 03:13:52;;;;;;;8.75;3.63;;;14.40;99.90;;;;;;5019134;28;20047;-88
2021/06/02 03:16:26;;;;;;;10.30;3.75;;;14.40;99.90;;;;;;5035657;28;20110;-88
2021/06/02 03:19:09;;;;;;;9.25;3.95;;;14.30;99.90;;;;;;5036171;28;20116;-88
2021/06/02 03:21:52;;;;;;;7.90;3.30;;;14.30;99.90;;;;;;5038373;28;20067;-88
2021/06/02 03:24:26;;;;;;;5.65;2.60;;;14.30;99.90;;;;;;5038949;28;20111;-88
2021/06/02 03:27:03;;;;;;;6.85;3.40;;;14.20;99.90;;;;;;5038588;28;20025;-88
2021/06/02 03:29:37;;;;;;;6.80;3.85;;;14.20;99.90;;;;;;5056428;28;20037;-89
2021/06/02 03:32:09;;;;;;;6.47;3.40;;;14.20;99.90;;;;;;5038845;28;20029;-88
2021/06/02 03:34:53;;;;;;;7.65;4.05;;;14.20;99.90;;;;;;5038933;28;20036;-88
2021/06/02 03:37:53;;;;;;;7.55;3.38;;;14.30;99.90;;;;;;5041420;28;20029;-89
2021/06/02 03:40:35;;;;;;;5.25;3.22;;;14.20;99.90;;;;;;5060055;28;20040;-87
2021/06/02 03:43:15;;;;;;;6.00;3.83;;;14.20;99.90;;;;;;5041248;28;20021;-86
2021/06/02 03:45:52;;;;;;;7.63;4.15;;;14.30;99.90;;;;;;5039886;28;20032;-87
2021/06/02 03:48:54;;;;;;;7.22;4.00;;;14.30;99.90;;;;;;5023222;28;20025;-86
2021/06/02 03:51:38;;;;;;;9.27;4.68;;;14.30;99.90;;;;;;5018881;28;20034;-88
2021/06/02 03:54:36;;;;;;;11.73;4.53;;;14.30;99.90;;;;;;5036483;28;20025;-87
2021/06/02 03:57:07;;;;;;;9.17;3.67;;;14.30;99.90;;;;;;5028863;28;20028;-87
2021/06/02 04:00:10;;;;;;;9.98;4.47;;;14.40;99.90;;;;;;5037634;28;20086;-87
2021/06/02 04:02:57;;;;;;;8.82;4.05;;;14.40;99.90;;;;;;5056309;28;20025;-88
2021/06/02 04:06:00;;;;;;;8.63;4.45;;;14.50;99.90;;;;;;5055624;28;20063;-87
2021/06/02 04:08:48;;;;;;;6.28;3.35;;;14.60;99.90;;;;;;5040481;28;20077;-87
2021/06/02 04:11:18;;;;;;;;;;;14.70;99.90;;;;;;5038716;28;20021;-87
2021/06/02 04:14:03;;;;;;;8.57;4.10;;;14.80;99.90;;;;;;5037587;28;19955;-88
2021/06/02 04:16:37;;;;;;;8.25;3.67;;;14.90;99.90;;;;;;5038170;28;20390;-87
2021/06/02 04:19:09;;;;;;;10.55;3.90;;;15.00;99.90;;;;;;5036855;28;20103;-88
2021/06/02 04:21:38;;;;;;;6.60;3.90;;;15.00;99.90;;;;;;5038285;28;20028;-87
2021/06/02 04:24:06;;;;;;;9.32;4.15;;;15.10;99.90;;;;;;5037515;28;20021;-87
2021/06/02 04:26:34;;;;;;;12.40;5.33;;;15.20;99.90;;;;;;5038149;28;20021;-87
2021/06/02 04:29:01;;;;;;;8.13;4.55;;;16.40;99.90;;;;;;5055713;28;20112;-88
2021/06/02 04:31:29;;;;;;;9.23;4.05;;;15.30;99.90;;;;;;5038003;28;20025;-87
2021/06/02 04:34:02;;;;;;;6.17;3.67;;;15.40;99.90;;;;;;5037479;28;20028;-87
2021/06/02 04:36:29;;;;;;;7.38;3.55;;;15.50;99.90;;;;;;5038014;28;20174;-88
2021/06/02 04:38:56;;;;;;;7.22;3.80;;;15.60;99.90;;;;;;5055067;28;20078;-88
2021/06/02 04:41:24;;;;;;;6.80;3.70;;;15.50;99.90;;;;;;5037731;28;20033;-88
2021/06/02 04:43:52;;;;;;;9.90;3.67;;;15.70;99.90;;;;;;5054164;28;20032;-88
2021/06/02 04:46:21;;;;;;;12.70;4.30;;;15.80;99.90;;;;;;5037741;28;20023;-88
2021/06/02 04:48:51;;;;;;;6.40;3.70;;;15.90;99.90;;;;;;5038215;28;20039;-88
2021/06/02 04:52:00;;;;;;;7.55;3.80;;;16.00;99.90;;;;;;5042719;28;20024;-87
2021/06/02 04:54:37;;;;;;;;;;;16.10;99.90;;;;;;5015508;28;20036;-88
2021/06/02 04:57:29;;;;;;;11.18;4.28;;;16.30;99.90;;;;;;5031237;28;19923;-87
2021/06/02 05:00:20;;;;;;;5.82;3.15;;;16.40;99.90;;;;;;5024220;28;20049;-88
2021/06/02 05:03:01;;;;;;;7.55;3.65;;;16.40;99.90;;;;;;5033397;28;20387;-87
2021/06/02 05:05:47;;;;;;;5.88;3.55;;;16.50;99.90;;;;;;5055087;28;20474;-87
2021/06/02 05:08:31;;;;;;;7.25;3.50;;;16.60;99.90;;;;;;5036931;28;20036;-87
2021/06/02 05:11:35;;;;;;;9.73;3.70;;;16.70;99.90;;;;;;5036897;28;20124;-88
2021/06/02 05:14:32;;;;;;;10.68;4.97;;;16.80;99.90;;;;;;5034976;28;20052;-88
2021/06/02 05:17:22;;;;;;;9.25;4.57;;;17.00;99.90;;;;;;5018672;28;20022;-88
2021/06/02 05:20:37;;;;;;;8.32;3.80;;;17.10;99.90;;;;;;5036656;28;20033;-89
2021/06/02 05:23:12;;;;;;;8.77;3.90;;;17.20;99.90;;;;;;5036931;28;20025;-89
2021/06/02 05:25:55;;;;;;;7.53;4.70;;;17.30;99.90;;;;;;5036573;28;20021;-89
2021/06/02 05:28:31;;;;;;;7.50;3.47;;;17.40;99.90;;;;;;5035997;28;20087;-88
2021/06/02 05:31:31;;;;;;;7.60;3.92;;;17.50;99.90;;;;;;5036672;28;20033;-89
2021/06/02 05:34:17;;;;;;;9.00;4.38;;;17.60;99.90;;;;;;5055107;28;20141;-88
2021/06/02 05:36:52;;;;;;;9.25;3.35;;;17.80;99.90;;;;;;5054261;28;20064;-89
2021/06/02 05:39:54;;;;;;;7.63;3.78;;;17.90;99.90;;;;;;5043397;28;20120;-89
2021/06/02 05:42:25;;;;;;;7.18;3.60;;;17.90;99.90;;;;;;5016673;28;20033;-89
2021/06/02 05:45:00;;;;;;;7.30;3.65;;;18.10;99.90;;;;;;5035459;28;20021;-88
2021/06/02 05:47:50;;;;;;;10.82;3.45;;;18.20;99.90;;;;;;5036670;28;20063;-90
2021/06/02 05:50:42;;;;;;;5.55;3.20;;;18.30;99.90;;;;;;5035801;28;20060;-89
2021/06/02 05:53:33;;;;;;;9.40;4.75;;;18.40;99.90;;;;;;5037220;28;20035;-89
2021/06/02 05:56:11;;;;;;;7.88;3.95;;;18.50;99.90;;;;;;5070056;28;20051;-87
2021/06/02 05:58:49;;;;;;;7.22;3.80;;;18.50;99.90;;;;;;5071131;28;20045;-87
2021/06/02 06:01:39;;;;;;;5.50;3.33;;;18.60;99.90;;;;;;5041574;28;20037;-89
2021/06/02 06:04:30;;;;;;;5.90;3.60;;;18.60;99.90;;;;;;5024007;28;20044;-88
2021/06/02 06:07:14;;;;;;;6.93;3.58;;;18.60;99.90;;;;;;5039925;28;20474;-90
2021/06/02 06:10:10;;;;;;;6.45;3.55;;;18.70;99.90;;;;;;5057679;28;20068;-89
2021/06/02 06:13:06;;;;;;;5.28;3.20;;;18.80;99.90;;;;;;5056850;28;20043;-89
2021/06/02 06:16:00;;;;;;;11.25;4.25;;;18.90;99.90;;;;;;5037479;28;20650;-89
2021/06/02 06:18:39;;;;;;;5.10;2.97;;;18.90;99.90;;;;;;5046298;28;20809;-90
2021/06/02 06:21:35;;;;;;;7.45;3.67;;;19.00;99.90;;;;;;5040054;28;20029;-88
2021/06/02 06:24:03;;;;;;;10.23;3.47;;;19.10;99.90;;;;;;5038883;28;20608;-87
2021/06/02 06:26:36;;;;;;;6.20;3.25;;;19.20;99.90;;;;;;5040938;28;20108;-88
2021/06/02 06:29:13;;;;;;;4.75;2.58;;;19.30;99.90;;;;;;5046266;28;20112;-89
2021/06/02 06:31:43;;;;;;;7.43;3.30;;;19.40;99.90;;;;;;5055061;28;20021;-89
2021/06/02 06:34:14;;;;;;;9.30;3.35;;;19.60;99.90;;;;;;5039208;28;20033;-90
2021/06/02 06:36:44;;;;;;;4.85;2.67;;;21.50;99.40;;;;;;5054632;28;20029;-87
2021/06/02 06:39:21;;;;;;;6.57;2.97;;;20.70;98.40;;;;;;5057306;28;20036;-90
2021/06/02 06:41:48;;;;;;;7.05;3.08;;;20.00;97.00;;;;;;4983673;28;1565057;-89
2021/06/02 06:44:15;;;;;;;7.55;2.85;;;19.80;96.80;;;;;;5025071;28;20023;-89
2021/06/02 06:46:42;;;;;;;6.55;2.97;;;20.10;96.00;;;;;;5039920;28;20025;-89
2021/06/02 06:49:11;;;;;;;7.35;2.83;;;20.90;94.70;;;;;;5039074;28;20051;-89
2021/06/02 06:51:39;;;;;;;9.02;2.63;;;22.40;94.40;;;;;;5041687;28;20080;-88
2021/06/02 06:54:11;;;;;;;6.95;2.80;;;23.20;94.00;;;;;;5058641;28;20032;-89
2021/06/02 06:56:38;;;;;;;16.95;3.53;;;20.80;92.00;;;;;;5057695;28;20025;-88
2021/06/02 06:59:04;;;;;;;4.07;2.55;;;20.70;91.10;;;;;;5039884;28;20029;-91
2021/06/02 07:01:31;;;;;;;5.10;2.80;;;23.20;91.00;;;;;;5039805;28;20029;-89
2021/06/02 07:03:57;;;;;;;4.93;2.22;;;21.30;90.00;;;;;;5039930;28;20082;-90
2021/06/02 07:06:24;;;;;;;2.67;2.00;;;21.10;87.30;;;;;;5056470;28;20033;-90
2021/06/02 07:08:50;;;;;;;3.17;2.13;;;21.60;84.80;;;;;;5053113;28;20029;-89
2021/06/02 07:11:20;;;;;;;5.25;1.90;;;21.40;80.70;;;;;;5062417;28;20024;-88
2021/06/02 07:13:47;;;;;;;2.38;1.77;;;21.50;80.90;;;;;;5060635;28;20029;-87
2021/06/02 07:16:15;;;;;;;4.35;2.08;;;21.60;81.50;;;;;;5061845;28;20035;-87
2021/06/02 07:18:46;;;;;;;6.55;2.17;;;21.70;80.50;;;;;;5043439;28;20099;-86
2021/06/02 07:21:13;;;;;;;4.82;1.67;;;22.20;76.70;;;;;;5044965;28;20039;-86
2021/06/02 07:23:40;;;;;;;7.57;1.67;;;21.90;75.70;;;;;;5044212;28;20067;-87
2021/06/02 07:26:06;;;;;;;10.05;1.70;;;22.30;74.20;;;;;;5045001;28;20025;-87
2021/06/02 07:28:38;;;;;;;3.22;1.67;;;22.10;74.30;;;;;;5045954;28;20033;-89
2021/06/02 07:31:06;;;;;;;6.55;2.05;;;22.20;73.10;;;;;;5045945;28;20051;-87
2021/06/02 07:33:31;;;;;;;6.78;1.85;;;22.30;72.90;;;;;;5046474;28;20032;-89
2021/06/02 07:35:58;;;;;;;4.15;1.52;;;22.40;71.90;;;;;;5045783;28;20021;-87
2021/06/02 07:38:24;;;;;;;3.65;1.65;;;22.40;70.00;;;;;;5062139;28;20029;-89
2021/06/02 07:40:50;;;;;;;8.48;1.55;;;22.40;68.50;;;;;;5059605;28;20025;-88
2021/06/02 07:43:16;;;;;;;6.80;2.65;;;22.70;68.30;;;;;;5039348;28;20033;-87
2021/06/02 07:45:42;;;;;;;2.17;1.30;;;24.10;67.30;;;;;;5039185;28;20021;-88
2021/06/02 07:48:08;;;;;;;2.35;1.00;;;22.90;66.50;;;;;;5056015;28;20611;-88
2021/06/02 07:50:33;;;;;;;2.70;1.00;;;23.00;65.60;;;;;;5038994;28;20032;-87
2021/06/02 07:52:59;;;;;;;1.67;0.73;;;23.20;65.80;;;;;;5039642;28;20021;-88
2021/06/02 07:55:25;;;;;;;1.60;0.70;;;25.80;66.00;;;;;;5039197;28;20025;-87
2021/06/02 07:57:50;;;;;;;2.10;1.00;;;23.40;63.10;;;;;;5039169;28;20021;-88
2021/06/02 08:00:16;;;;;;;3.60;1.20;;;25.70;64.60;;;;;;5039742;28;20020;-87
2021/06/02 08:02:42;;;;;;;2.65;0.90;;;23.60;62.80;;;;;;5039423;28;20540;-89
2021/06/02 08:05:09;;;;;;;4.90;1.20;;;26.00;62.50;;;;;;5040827;28;20116;-88
2021/06/02 08:07:35;;;;;;;2.08;0.40;;;23.50;59.70;;;;;;5055810;28;20027;-88
2021/06/02 08:10:01;;;;;;;3.38;0.85;;;24.10;61.00;;;;;;5061438;28;20115;-88
2021/06/02 08:12:26;;;;;;;1.77;0.70;;;23.10;57.90;;;;;;5060438;28;20017;-88
2021/06/02 08:14:52;;;;;;;2.72;1.33;;;27.50;61.30;;;;;;5077154;28;20029;-87
2021/06/02 08:17:17;;;;;;;4.78;0.65;;;24.00;57.20;;;;;;5041493;28;20009;-88
2021/06/02 08:19:43;;;;;;;4.18;0.50;;;24.20;57.40;;;;;;5038024;28;20493;-87
2021/06/02 08:22:08;;;;;;;5.35;1.60;;;25.00;57.20;;;;;;5039060;28;20120;-87
2021/06/02 08:24:38;;;;;;;3.25;1.30;;;27.10;56.80;;;;;;5018754;28;20024;-86
2021/06/02 08:27:05;;;;;;;3.67;0.85;;;24.60;54.90;;;;;;5041461;28;20017;-87
2021/06/02 08:29:31;;;;;;;2.33;0.70;;;24.60;53.70;;;;;;5039135;28;20551;-88
2021/06/02 08:31:56;;;;;;;2.67;0.75;;;24.60;53.90;;;;;;5039598;28;20033;-86
2021/06/02 08:34:22;;;;;;;6.63;1.10;;;24.70;54.00;;;;;;5038903;28;20033;-88
2021/06/02 08:36:47;;;;;;;2.65;0.50;;;24.80;53.70;;;;;;5039465;28;20108;-88
2021/06/02 08:39:16;;;;;;;5.25;1.42;;;24.90;54.20;;;;;;5039073;28;20029;-89
2021/06/02 08:41:42;;;;;;;3.03;0.80;;;24.90;53.60;;;;;;5039270;28;20017;-88
2021/06/02 08:44:08;;;;;;;4.10;0.57;;;27.80;56.40;;;;;;5038252;28;20036;-88
2021/06/02 08:46:35;;;;;;;4.80;1.05;;;27.10;54.30;;;;;;5037335;28;20029;-87
2021/06/02 08:49:02;;;;;;;2.58;0.40;;;25.20;51.50;;;;;;5038373;28;20021;-88
2021/06/02 08:51:28;;;;;;;1.98;0.40;;;27.40;51.70;;;;;;5056683;28;20032;-87
2021/06/02 08:53:54;;;;;;;1.95;0.30;;;22.20;49.60;;;;;;5037468;28;20021;-89
2021/06/02 08:56:20;;;;;;;0.95;0.20;;;25.30;49.50;;;;;;5038403;28;20500;-88
2021/06/02 08:58:46;;;;;;;1.25;0.30;;;29.00;52.30;;;;;;5054654;28;20111;-89
2021/06/02 09:01:14;;;;;;;3.30;0.80;;;25.60;51.80;;;;;;5037085;28;20429;-89
2021/06/02 09:03:39;;;;;;;2.22;0.52;;;27.70;51.60;;;;;;5037266;28;20017;-88
2021/06/02 09:06:08;;;;;;;2.17;0.60;;;25.70;51.10;;;;;;5037072;28;20112;-88
2021/06/02 09:08:38;;;;;;;1.05;0.30;;;26.00;48.80;;;;;;5054548;28;20078;-88
2021/06/02 09:11:36;;;;;;;3.55;0.63;;;25.80;48.80;;;;;;5054137;28;20075;-88
2021/06/02 09:14:02;;;;;;;1.85;0.35;;;28.40;50.80;;;;;;5036285;28;20033;-89
2021/06/02 09:16:30;;;;;;;0.82;0.20;;;26.00;48.00;;;;;;5036873;28;20025;-89
2021/06/02 09:19:00;;;;;;;2.40;0.10;;;26.10;48.80;;;;;;5036647;28;20486;-88
2021/06/02 09:21:34;;;;;;;1.17;0.15;;;26.30;47.30;;;;;;5037753;28;20029;-88
2021/06/02 09:23:59;;;;;;;3.25;0.13;;;26.20;45.60;;;;;;5038150;28;20067;-88
2021/06/02 09:26:32;;;;;;;0.32;0.20;;;28.40;45.50;;;;;;5038226;28;20020;-87
2021/06/02 09:29:14;;;;;;;0.40;0.20;;;26.50;44.70;;;;;;5037465;28;20024;-87
2021/06/02 09:31:42;;;;;;;0.95;0.50;;;26.60;45.30;;;;;;5037200;28;20389;-88
2021/06/02 09:34:25;;;;;;;2.63;0.10;;;26.70;44.50;;;;;;5039117;28;20389;-89
2021/06/02 09:37:02;;;;;;;0.88;0.10;;;26.70;44.50;;;;;;5039489;28;20478;-89
2021/06/02 09:39:30;;;;;;;1.77;0.20;;;26.80;44.40;;;;;;5041658;28;20021;-87
2021/06/02 09:41:57;;;;;;;0.67;0.13;;;27.00;44.00;;;;;;5040523;28;20040;-88
2021/06/02 09:44:25;;;;;;;0.27;0.20;;;27.40;43.40;;;;;;5057669;28;20104;-87
2021/06/02 09:47:10;;;;;;;0.50;0.10;;;26.90;43.50;;;;;;5038865;28;20108;-90
2021/06/02 09:49:54;;;;;;;1.10;0.10;;;27.00;42.70;;;;;;5038817;28;20381;-87
2021/06/02 09:52:45;;;;;;;0.38;0.00;;;27.10;41.00;;;;;;5057495;28;20029;-89
2021/06/02 09:55:30;;;;;;;0.80;0.25;;;27.20;41.30;;;;;;5039316;28;20021;-90
2021/06/02 09:58:02;;;;;;;0.47;0.30;;;28.60;43.40;;;;;;5041060;28;20041;-88
2021/06/02 10:00:31;;;;;;;0.55;0.10;;;27.50;40.80;;;;;;5040215;28;20226;-89
2021/06/02 10:03:03;;;;;;;0.30;0.10;;;27.50;40.90;;;;;;5039227;28;20029;-89
2021/06/02 10:05:38;;;;;;;0.43;0.10;;;28.80;41.20;;;;;;5038687;28;20028;-88
2021/06/02 10:08:05;;;;;;;1.13;0.10;;;28.20;40.00;;;;;;5038211;28;20045;-89
2021/06/02 10:10:32;;;;;;;3.30;0.22;;;27.80;40.50;;;;;;5056372;28;20025;-89
2021/06/02 10:13:00;;;;;;;0.20;0.10;;;27.80;39.50;;;;;;5039340;28;20029;-90
2021/06/02 10:15:30;;;;;;;2.22;0.20;;;27.70;39.20;;;;;;5041255;28;20025;-88
2021/06/02 10:17:56;;;;;;;0.50;0.10;;;27.70;39.40;;;;;;5040893;28;20025;-89
2021/06/02 10:20:22;;;;;;;2.80;0.30;;;27.50;42.00;;;;;;5037554;28;20053;-89
2021/06/02 10:22:56;;;;;;;0.68;0.30;;;29.90;41.50;;;;;;5037582;28;20025;-88
2021/06/02 10:25:24;;;;;;;0.82;0.40;;;27.70;41.90;;;;;;5038681;28;20167;-89
2021/06/02 10:27:59;;;;;;;0.90;0.38;;;28.30;44.30;;;;;;5055435;28;20017;-90
2021/06/02 10:30:29;;;;;;;1.02;0.43;;;28.10;43.10;;;;;;5055575;28;20036;-88
2021/06/02 10:32:56;;;;;;;1.15;0.30;;;30.60;44.70;;;;;;5055095;28;20013;-89
2021/06/02 10:35:31;;;;;;;0.82;0.25;;;29.70;45.10;;;;;;5037588;28;20098;-90
2021/06/02 10:38:00;;;;;;;0.57;0.10;;;28.50;43.70;;;;;;5037554;28;20021;-89
2021/06/02 10:40:29;;;;;;;0.82;0.10;;;28.80;41.50;;;;;;5038898;28;20021;-88
2021/06/02 10:43:16;;;;;;;0.47;0.10;;;29.60;42.20;;;;;;5060368;28;20032;-90
2021/06/02 10:45:55;;;;;;;2.60;0.10;;;31.50;42.60;;;;;;5043656;28;20025;-88
2021/06/02 10:48:43;;;;;;;2.55;0.20;;;29.30;39.20;;;;;;5033224;28;20029;-89
2021/06/02 10:51:27;;;;;;;0.47;0.00;;;28.60;39.90;;;;;;5044551;28;20029;-88
2021/06/02 10:54:12;;;;;;;1.65;0.17;;;29.10;39.00;;;;;;5041010;28;20028;-88
2021/06/02 10:57:02;;;;;;;0.85;0.10;;;29.00;38.40;;;;;;5041775;28;20111;-88
2021/06/02 10:59:35;;;;;;;2.17;0.08;;;30.10;38.80;;;;;;5041251;28;20029;-89
2021/06/02 11:02:07;;;;;;;0.10;0.00;;;29.10;36.30;;;;;;5041377;28;20070;-88
2021/06/02 11:04:35;;;;;;;0.10;0.00;;;29.10;35.70;;;;;;5062168;28;20033;-88
2021/06/02 11:07:22;;;;;;;1.30;0.32;;;29.10;36.30;;;;;;5073092;28;20484;-88
2021/06/02 11:10:38;;;;;;;1.25;0.40;;;29.10;36.80;;;;;;5050747;28;20029;-87
2021/06/02 11:13:05;;;;;;;0.20;0.00;;;27.80;36.50;;;;;;5004745;28;20046;-87
2021/06/02 11:15:31;;;;;;;0.47;0.00;;;29.60;37.00;;;;;;5048091;28;20029;-89
2021/06/02 11:18:09;;;;;;;0.70;0.08;;;32.30;38.80;;;;;;5044622;28;20041;-88
2021/06/02 11:20:46;;;;;;;0.25;0.10;;;29.40;36.20;;;;;;5043158;28;20336;-88
2021/06/02 11:23:16;;;;;;;0.10;0.10;;;29.80;35.40;;;;;;5042667;28;20021;-87
2021/06/02 11:25:43;;;;;;;1.20;0.00;;;29.60;35.70;;;;;;5040467;28;20043;-87
2021/06/02 11:28:41;;;;;;;2.08;0.00;;;26.50;35.00;;;;;;5041423;28;20021;-86
2021/06/02 11:31:31;;;;;;;1.55;0.15;;;30.20;36.60;;;;;;5057393;28;20035;-88
2021/06/02 11:34:26;;;;;;;0.38;0.10;;;30.00;36.10;;;;;;5037304;28;20021;-89
2021/06/02 11:37:15;;;;;;;0.40;0.00;;;30.50;35.90;;;;;;5032876;28;20070;-89
2021/06/02 11:39:45;;;;;;;0.40;0.10;;;30.10;35.30;;;;;;5046807;28;20040;-88
2021/06/02 11:42:30;;;;;;;0.30;0.10;;;28.80;34.90;;;;;;5049742;28;20035;-88
2021/06/02 11:45:10;;;;;;;2.22;0.10;;;30.10;35.90;;;;;;5055542;28;20084;-90
2021/06/02 11:47:43;;;;;;;2.05;0.10;;;30.40;34.80;;;;;;5052995;28;20026;-89
2021/06/02 11:50:11;;;;;;;0.88;0.40;;;33.80;38.70;;;;;;5031273;28;20028;-89
2021/06/02 11:52:40;;;;;;;1.85;0.00;;;30.80;37.20;;;;;;5046221;28;20084;-88
2021/06/02 11:55:13;;;;;;;0.38;0.10;;;30.50;36.30;;;;;;5043816;28;20486;-91
2021/06/02 11:57:40;;;;;;;0.20;0.00;;;30.60;34.90;;;;;;5042322;28;20032;-88
2021/06/02 12:00:16;;;;;;;0.43;0.20;;;34.00;39.30;;;;;;5042941;28;20067;-89
2021/06/02 12:02:46;;;;;;;1.77;0.00;;;31.30;35.80;;;;;;5046638;28;20025;-91
2021/06/02 12:05:20;;;;;;;0.80;0.10;;;30.70;36.00;;;;;;5045040;28;20222;-90
2021/06/02 12:07:53;;;;;;;3.72;0.20;;;31.10;35.60;;;;;;5040545;28;20067;-90
2021/06/02 12:10:18;;;;;;;3.50;0.20;;;33.50;36.70;;;;;;5038374;28;20044;-90
2021/06/02 12:12:45;;;;;;;0.35;0.10;;;31.50;35.60;;;;;;5056713;28;20017;-90
2021/06/02 12:15:13;;;;;;;0.70;0.10;;;31.50;34.50;;;;;;5056835;28;20025;-88
2021/06/02 12:17:40;;;;;;;0.47;0.10;;;31.40;34.30;;;;;;5044423;28;20025;-89
2021/06/02 12:20:09;;;;;;;2.05;0.10;;;31.20;34.20;;;;;;5065689;28;20524;-88
2021/06/02 12:22:38;;;;;;;1.15;0.10;;;31.30;34.40;;;;;;5067994;28;20028;-88
2021/06/02 12:25:08;;;;;;;0.52;0.05;;;33.50;35.90;;;;;;5046573;28;20112;-89
2021/06/02 12:27:41;;;;;;;1.90;0.28;;;31.50;34.00;;;;;;5054472;28;20101;-88
2021/06/02 12:30:16;;;;;;;1.13;0.10;;;33.70;36.40;;;;;;5061186;28;20024;-87
2021/06/02 12:32:59;;;;;;;0.30;0.10;;;31.30;34.40;;;;;;5065649;28;20021;-89
2021/06/02 12:35:42;;;;;;;0.63;0.20;;;31.50;35.10;;;;;;5058576;28;20021;-91
2021/06/02 12:38:20;;;;;;;2.42;0.55;;;31.70;34.80;;;;;;5060031;28;20497;-89
2021/06/02 12:40:50;;;;;;;0.30;0.10;;;31.90;34.50;;;;;;5062243;28;20164;-88
2021/06/02 12:43:20;;;;;;;0.60;0.38;;;31.90;35.30;;;;;;5064409;28;20024;-89
2021/06/02 12:45:48;;;;;;;1.88;0.20;;;32.10;37.10;;;;;;5069849;28;20025;-90
2021/06/02 12:48:34;;;;;;;2.60;0.52;;;32.40;34.20;;;;;;5068618;28;20080;-89
2021/06/02 12:51:04;;;;;;;1.25;0.10;;;32.50;34.10;;;;;;5058879;28;20096;-89
2021/06/02 12:53:41;;;;;;;0.70;0.10;;;32.70;33.50;;;;;;5058892;28;20116;-88
2021/06/02 12:56:10;;;;;;;2.03;0.10;;;33.30;35.00;;;;;;5058737;28;20025;-87
2021/06/02 12:58:37;;;;;;;0.75;0.10;;;33.10;35.00;;;;;;5059213;28;20478;-88
2021/06/02 13:01:06;;;;;;;2.25;0.30;;;33.40;34.90;;;;;;5059064;28;20032;-89
2021/06/02 13:03:57;;;;;;;0.70;0.35;;;33.60;34.10;;;;;;5057261;28;20028;-88
2021/06/02 13:06:26;;;;;;;1.92;0.20;;;33.80;34.20;;;;;;5055258;28;20089;-87
2021/06/02 13:08:56;;;;;;;1.88;0.35;;;34.00;33.80;;;;;;5057830;28;20040;-87
2021/06/02 13:11:30;;;;;;;0.80;0.30;;;35.50;38.30;;;;;;5057313;28;20028;-87
2021/06/02 13:13:59;;;;;;;2.25;0.55;;;33.80;35.20;;;;;;5056130;28;20386;-87
2021/06/02 13:16:26;;;;;;;1.55;0.30;;;33.50;33.80;;;;;;5040027;28;20028;-88
2021/06/02 13:19:03;;;;;;;2.95;0.22;;;33.70;34.00;;;;;;5057210;28;20027;-89
2021/06/02 13:21:36;;;;;;;1.52;0.25;;;33.60;34.20;;;;;;5040434;28;20052;-86
2021/06/02 13:24:16;;;;;;;0.85;0.10;;;33.80;32.90;;;;;;5044170;28;20094;-87
2021/06/02 13:26:59;;;;;;;2.63;0.10;;;33.80;32.90;;;;;;5042245;28;20025;-88
2021/06/02 13:29:25;;;;;;;1.75;0.35;;;33.80;32.90;;;;;;5041103;28;20053;-87
2021/06/02 13:31:58;;;;;;;2.08;0.15;;;33.80;33.60;;;;;;5057795;28;20086;-90
2021/06/02 13:34:31;;;;;;;0.68;0.10;;;34.00;34.60;;;;;;5057502;28;20043;-89